Aérodrome :
LOGIN :

S'inscrire | Disclaimer

   EN    FR    IT 

 










Légende :    VFR   VFR Marginal   IFR   IFR Intensif   IFR Très Intensif
Visi : 
Plafond : 
>= 8 km
>= 3000ft
5 à 8 km
1000 à 3000 ft
1500m à 5 km
500 à 1000 ft
800 à 1500m
200 à 500 ft
< 800m
< 200 ft
Symboles :   Orages  Brouillard  Fortes neiges  Fortes précipitations  Vent > 20 kt
SIGMETs :   Divers  Orages  Givrage  Turbulence  Onde Orograph.  Cendres Volcan.







- Altitude de l'aérodrome : 87 ft
- Code IATA : FSC
- Voir les cartes d'approche


LFKF - Figari

DERNIER METAR :
  • 261800Z AUTO 22003KT 170V290 CAVOK 32/18 Q1019 NOSIG

METARs EXPIRÉS :
  • 261730Z AUTO VRB04KT CAVOK 32/15 Q1019 NOSIG
  • 261700Z AUTO 24006KT 200V270 CAVOK 32/17 Q1019 NOSIG
  • 261630Z AUTO 22007KT 170V240 CAVOK 32/18 Q1019 NOSIG
  • 261600Z AUTO 22008KT 170V240 CAVOK 33/19 Q1019 TEMPO 05010KT
  • 261530Z AUTO 20008KT 160V230 CAVOK 34/18 Q1019 TEMPO 05010KT

TAF TAF LFKF
Valide du 26 à 15h jusqu'au 27 à 15h UTC


261400Z 2615/2715 05010KT CAVOK
BECMG 2617/2620 VRB03KT
BECMG 2707/2710 05012KT
Pas de NOTAMs connus pour ce terrain.



MET'MAP, la Météo Aéronautique d'un coup d'oeil ! - Copyright ORBIFLY Décembre 2007 - Disclaimer

ORBIFLY MET'MAP TEAM :

Programmation & Développement : Alexandra Zaïnal
Conception & Développement : Baudouin d'Aumeries
Co-Programmation & Développement : Marc-Olivier Méhu
Soutien technique & logistique : Manuel Goepfert

Contact : metmap@orbifly.com




SOURCES & CREDITS :

   NOAA